sensor_id;sensor_type;location;lat;lon;timestamp;pressure;altitude;pressure_sealevel;temperature;humidity
16806;BME280;8520;50.102;20.010;2023-02-19T00:01:51;97930.63;;;7.96;98.08
16806;BME280;8520;50.102;20.010;2023-02-19T00:04:20;97945.53;;;8.37;96.47
16806;BME280;8520;50.102;20.010;2023-02-19T00:06:49;97938.66;;;7.99;97.91
16806;BME280;8520;50.102;20.010;2023-02-19T00:09:19;97931.28;;;8.15;98.54
16806;BME280;8520;50.102;20.010;2023-02-19T00:11:47;97913.44;;;7.86;98.87
16806;BME280;8520;50.102;20.010;2023-02-19T00:14:17;97909.63;;;7.84;99.37
16806;BME280;8520;50.102;20.010;2023-02-19T00:16:47;97925.78;;;7.82;99.85
16806;BME280;8520;50.102;20.010;2023-02-19T00:19:17;97918.06;;;8.04;98.62
16806;BME280;8520;50.102;20.010;2023-02-19T00:21:45;97927.97;;;7.68;99.00
16806;BME280;8520;50.102;20.010;2023-02-19T00:24:14;97918.56;;;7.93;98.48
16806;BME280;8520;50.102;20.010;2023-02-19T00:26:44;97931.41;;;8.20;97.72
16806;BME280;8520;50.102;20.010;2023-02-19T00:29:14;97941.47;;;7.81;97.54
16806;BME280;8520;50.102;20.010;2023-02-19T00:31:44;97948.06;;;7.65;97.50
16806;BME280;8520;50.102;20.010;2023-02-19T00:34:12;97947.75;;;7.73;97.09
16806;BME280;8520;50.102;20.010;2023-02-19T00:36:41;97933.47;;;8.02;97.38
16806;BME280;8520;50.102;20.010;2023-02-19T00:39:13;97917.94;;;7.98;96.14
16806;BME280;8520;50.102;20.010;2023-02-19T00:41:42;97916.72;;;7.99;97.45
16806;BME280;8520;50.102;20.010;2023-02-19T00:44:13;97913.34;;;7.72;98.43
16806;BME280;8520;50.102;20.010;2023-02-19T00:46:42;97915.31;;;7.71;97.83
16806;BME280;8520;50.102;20.010;2023-02-19T00:49:14;97904.88;;;7.51;98.71
16806;BME280;8520;50.102;20.010;2023-02-19T00:51:43;97920.25;;;7.49;97.86
16806;BME280;8520;50.102;20.010;2023-02-19T00:54:11;97924.47;;;7.59;98.22
16806;BME280;8520;50.102;20.010;2023-02-19T00:56:39;97901.59;;;7.71;97.04
16806;BME280;8520;50.102;20.010;2023-02-19T00:59:08;97898.19;;;7.85;97.05
16806;BME280;8520;50.102;20.010;2023-02-19T01:01:38;97910.03;;;7.91;96.88
16806;BME280;8520;50.102;20.010;2023-02-19T01:04:06;97896.66;;;7.51;98.54
16806;BME280;8520;50.102;20.010;2023-02-19T01:06:35;97897.88;;;7.50;98.53
16806;BME280;8520;50.102;20.010;2023-02-19T01:09:04;97899.72;;;7.77;97.65
16806;BME280;8520;50.102;20.010;2023-02-19T01:11:33;97899.50;;;7.99;96.85
16806;BME280;8520;50.102;20.010;2023-02-19T01:14:02;97904.81;;;7.69;98.56
16806;BME280;8520;50.102;20.010;2023-02-19T01:16:30;97891.59;;;7.92;98.06
16806;BME280;8520;50.102;20.010;2023-02-19T01:19:00;97890.34;;;7.69;97.11
16806;BME280;8520;50.102;20.010;2023-02-19T01:21:29;97891.06;;;7.79;97.58
16806;BME280;8520;50.102;20.010;2023-02-19T01:23:57;97896.59;;;7.69;97.82
16806;BME280;8520;50.102;20.010;2023-02-19T01:26:27;97882.63;;;7.49;98.31
16806;BME280;8520;50.102;20.010;2023-02-19T01:28:57;97881.75;;;7.34;98.38
16806;BME280;8520;50.102;20.010;2023-02-19T01:31:25;97888.75;;;7.44;97.10
16806;BME280;8520;50.102;20.010;2023-02-19T01:33:55;97893.59;;;7.91;95.11
16806;BME280;8520;50.102;20.010;2023-02-19T01:36:26;97894.28;;;7.68;95.67
16806;BME280;8520;50.102;20.010;2023-02-19T01:38:55;97887.00;;;7.65;94.68
16806;BME280;8520;50.102;20.010;2023-02-19T01:41:24;97883.97;;;7.63;94.81
16806;BME280;8520;50.102;20.010;2023-02-19T01:43:59;97884.69;;;7.73;94.40
16806;BME280;8520;50.102;20.010;2023-02-19T01:46:28;97879.59;;;7.47;94.95
16806;BME280;8520;50.102;20.010;2023-02-19T01:49:02;97879.03;;;7.34;95.02
16806;BME280;8520;50.102;20.010;2023-02-19T01:51:34;97865.66;;;7.69;95.13
16806;BME280;8520;50.102;20.010;2023-02-19T01:54:06;97865.84;;;7.56;93.90
16806;BME280;8520;50.102;20.010;2023-02-19T01:56:36;97866.09;;;7.67;94.32
16806;BME280;8520;50.102;20.010;2023-02-19T01:59:05;97878.78;;;7.56;94.18
16806;BME280;8520;50.102;20.010;2023-02-19T02:01:34;97863.31;;;8.10;94.83
16806;BME280;8520;50.102;20.010;2023-02-19T02:04:04;97861.59;;;7.88;94.79
16806;BME280;8520;50.102;20.010;2023-02-19T02:06:38;97870.59;;;8.13;93.70
16806;BME280;8520;50.102;20.010;2023-02-19T02:09:09;97861.06;;;8.32;94.38
16806;BME280;8520;50.102;20.010;2023-02-19T02:11:54;97862.84;;;8.11;94.90
16806;BME280;8520;50.102;20.010;2023-02-19T02:14:24;97869.44;;;7.72;96.75
16806;BME280;8520;50.102;20.010;2023-02-19T02:16:57;97872.53;;;7.97;97.67
16806;BME280;8520;50.102;20.010;2023-02-19T02:19:35;97857.06;;;8.33;95.84
16806;BME280;8520;50.102;20.010;2023-02-19T02:22:15;97873.44;;;7.94;97.08
16806;BME280;8520;50.102;20.010;2023-02-19T02:25:01;97863.38;;;8.24;97.36
16806;BME280;8520;50.102;20.010;2023-02-19T02:27:42;97865.44;;;8.15;96.67
16806;BME280;8520;50.102;20.010;2023-02-19T02:30:37;97860.44;;;7.80;98.24
16806;BME280;8520;50.102;20.010;2023-02-19T02:33:13;97870.31;;;7.87;97.79
16806;BME280;8520;50.102;20.010;2023-02-19T02:35:47;97869.53;;;7.53;96.86
16806;BME280;8520;50.102;20.010;2023-02-19T02:38:22;97871.34;;;7.89;95.88
16806;BME280;8520;50.102;20.010;2023-02-19T02:40:53;97872.19;;;7.72;96.34
16806;BME280;8520;50.102;20.010;2023-02-19T02:43:23;97867.47;;;8.05;95.62
16806;BME280;8520;50.102;20.010;2023-02-19T02:45:52;97870.78;;;8.09;96.06
16806;BME280;8520;50.102;20.010;2023-02-19T02:48:30;97858.34;;;7.66;97.25
16806;BME280;8520;50.102;20.010;2023-02-19T02:51:03;97857.53;;;7.75;97.96
16806;BME280;8520;50.102;20.010;2023-02-19T02:53:43;97856.88;;;8.13;97.49
16806;BME280;8520;50.102;20.010;2023-02-19T02:56:31;97869.22;;;7.84;98.08
16806;BME280;8520;50.102;20.010;2023-02-19T02:59:03;97855.78;;;7.95;97.61
16806;BME280;8520;50.102;20.010;2023-02-19T03:01:38;97849.69;;;7.91;97.75
16806;BME280;8520;50.102;20.010;2023-02-19T03:04:29;97844.88;;;7.77;98.55
16806;BME280;8520;50.102;20.010;2023-02-19T03:07:03;97847.25;;;7.60;98.33
16806;BME280;8520;50.102;20.010;2023-02-19T03:09:38;97845.28;;;8.18;95.34
16806;BME280;8520;50.102;20.010;2023-02-19T03:12:13;97858.91;;;7.37;98.09
16806;BME280;8520;50.102;20.010;2023-02-19T03:15:05;97855.22;;;7.82;97.35
16806;BME280;8520;50.102;20.010;2023-02-19T03:17:57;97853.47;;;7.94;96.36
16806;BME280;8520;50.102;20.010;2023-02-19T03:20:47;97850.03;;;7.51;96.96
16806;BME280;8520;50.102;20.010;2023-02-19T03:23:19;97861.31;;;7.53;97.63
16806;BME280;8520;50.102;20.010;2023-02-19T03:26:11;97851.63;;;7.34;99.35
16806;BME280;8520;50.102;20.010;2023-02-19T03:28:47;97850.53;;;7.31;99.95
16806;BME280;8520;50.102;20.010;2023-02-19T03:31:38;97845.25;;;7.94;98.85
16806;BME280;8520;50.102;20.010;2023-02-19T03:34:12;97835.06;;;7.61;99.47
16806;BME280;8520;50.102;20.010;2023-02-19T03:36:43;97832.25;;;8.27;96.76
16806;BME280;8520;50.102;20.010;2023-02-19T03:39:16;97834.03;;;7.83;97.65
16806;BME280;8520;50.102;20.010;2023-02-19T03:41:54;97826.31;;;8.05;97.91
16806;BME280;8520;50.102;20.010;2023-02-19T03:44:27;97826.09;;;8.42;96.84
16806;BME280;8520;50.102;20.010;2023-02-19T03:47:04;97826.47;;;7.78;100.00
16806;BME280;8520;50.102;20.010;2023-02-19T03:49:43;97820.94;;;8.11;98.37
16806;BME280;8520;50.102;20.010;2023-02-19T03:52:19;97813.75;;;7.89;100.00
16806;BME280;8520;50.102;20.010;2023-02-19T03:54:54;97821.03;;;7.68;100.00
16806;BME280;8520;50.102;20.010;2023-02-19T03:57:30;97816.94;;;7.64;100.00
16806;BME280;8520;50.102;20.010;2023-02-19T04:00:05;97814.63;;;7.95;100.00
16806;BME280;8520;50.102;20.010;2023-02-19T04:02:41;97816.84;;;7.82;100.00
16806;BME280;8520;50.102;20.010;2023-02-19T04:05:16;97811.63;;;7.84;100.00
16806;BME280;8520;50.102;20.010;2023-02-19T04:07:47;97819.28;;;8.04;100.00
16806;BME280;8520;50.102;20.010;2023-02-19T04:10:21;97808.53;;;7.67;100.00
16806;BME280;8520;50.102;20.010;2023-02-19T04:12:55;97810.91;;;7.51;100.00
16806;BME280;8520;50.102;20.010;2023-02-19T04:15:29;97803.28;;;8.03;100.00
16806;BME280;8520;50.102;20.010;2023-02-19T04:18:01;97790.56;;;7.90;100.00
16806;BME280;8520;50.102;20.010;2023-02-19T04:20:37;97795.13;;;7.93;100.00
16806;BME280;8520;50.102;20.010;2023-02-19T04:23:06;97796.59;;;7.80;100.00
16806;BME280;8520;50.102;20.010;2023-02-19T04:25:37;97780.81;;;7.65;100.00
16806;BME280;8520;50.102;20.010;2023-02-19T04:28:07;97779.91;;;8.31;99.73
16806;BME280;8520;50.102;20.010;2023-02-19T04:30:35;97771.59;;;8.25;100.00
16806;BME280;8520;50.102;20.010;2023-02-19T04:33:03;97774.47;;;7.83;100.00
16806;BME280;8520;50.102;20.010;2023-02-19T04:35:33;97771.91;;;7.80;100.00
16806;BME280;8520;50.102;20.010;2023-02-19T04:38:01;97757.38;;;7.64;100.00
16806;BME280;8520;50.102;20.010;2023-02-19T04:40:29;97761.16;;;7.67;100.00
16806;BME280;8520;50.102;20.010;2023-02-19T04:42:57;97749.88;;;8.13;99.82
16806;BME280;8520;50.102;20.010;2023-02-19T04:45:25;97760.84;;;8.13;99.71
16806;BME280;8520;50.102;20.010;2023-02-19T04:47:53;97767.47;;;7.82;100.00
16806;BME280;8520;50.102;20.010;2023-02-19T04:50:21;97772.16;;;7.58;100.00
16806;BME280;8520;50.102;20.010;2023-02-19T04:52:51;97777.50;;;7.85;100.00
16806;BME280;8520;50.102;20.010;2023-02-19T04:55:19;97774.47;;;8.07;100.00
16806;BME280;8520;50.102;20.010;2023-02-19T04:57:47;97765.13;;;8.14;100.00
16806;BME280;8520;50.102;20.010;2023-02-19T05:00:15;97776.09;;;7.90;100.00
16806;BME280;8520;50.102;20.010;2023-02-19T05:02:43;97767.38;;;7.67;100.00
16806;BME280;8520;50.102;20.010;2023-02-19T05:05:11;97770.59;;;7.42;100.00
16806;BME280;8520;50.102;20.010;2023-02-19T05:07:39;97763.22;;;8.05;100.00
16806;BME280;8520;50.102;20.010;2023-02-19T05:10:09;97761.28;;;7.73;100.00
16806;BME280;8520;50.102;20.010;2023-02-19T05:12:37;97752.84;;;8.24;99.76
16806;BME280;8520;50.102;20.010;2023-02-19T05:15:05;97756.88;;;7.66;100.00
16806;BME280;8520;50.102;20.010;2023-02-19T05:17:34;97757.38;;;7.88;100.00
16806;BME280;8520;50.102;20.010;2023-02-19T05:20:02;97756.63;;;8.65;98.55
16806;BME280;8520;50.102;20.010;2023-02-19T05:22:31;97765.94;;;7.57;100.00
16806;BME280;8520;50.102;20.010;2023-02-19T05:24:59;97752.22;;;7.57;100.00
16806;BME280;8520;50.102;20.010;2023-02-19T05:27:30;97739.34;;;8.35;99.77
16806;BME280;8520;50.102;20.010;2023-02-19T05:29:58;97742.00;;;8.06;99.92
16806;BME280;8520;50.102;20.010;2023-02-19T05:32:26;97736.41;;;8.00;99.54
16806;BME280;8520;50.102;20.010;2023-02-19T05:34:54;97731.09;;;7.96;98.99
16806;BME280;8520;50.102;20.010;2023-02-19T05:37:22;97730.75;;;8.42;98.67
16806;BME280;8520;50.102;20.010;2023-02-19T05:39:50;97728.53;;;7.93;98.53
16806;BME280;8520;50.102;20.010;2023-02-19T05:42:19;97728.00;;;8.42;98.81
16806;BME280;8520;50.102;20.010;2023-02-19T05:44:48;97720.41;;;7.98;98.70
16806;BME280;8520;50.102;20.010;2023-02-19T05:47:16;97715.69;;;7.99;99.22
16806;BME280;8520;50.102;20.010;2023-02-19T05:49:44;97713.84;;;7.81;99.91
16806;BME280;8520;50.102;20.010;2023-02-19T05:52:12;97721.06;;;7.93;99.26
16806;BME280;8520;50.102;20.010;2023-02-19T05:54:40;97707.28;;;8.03;97.89
16806;BME280;8520;50.102;20.010;2023-02-19T05:57:08;97704.16;;;8.10;98.89
16806;BME280;8520;50.102;20.010;2023-02-19T05:59:37;97717.13;;;7.70;98.88
16806;BME280;8520;50.102;20.010;2023-02-19T06:02:06;97716.88;;;7.83;99.29
16806;BME280;8520;50.102;20.010;2023-02-19T06:04:35;97724.28;;;7.68;99.64
16806;BME280;8520;50.102;20.010;2023-02-19T06:07:03;97720.63;;;7.71;100.00
16806;BME280;8520;50.102;20.010;2023-02-19T06:09:31;97731.69;;;8.01;98.50
16806;BME280;8520;50.102;20.010;2023-02-19T06:11:59;97730.69;;;7.65;98.78
16806;BME280;8520;50.102;20.010;2023-02-19T06:14:27;97717.63;;;7.84;99.51
16806;BME280;8520;50.102;20.010;2023-02-19T06:16:55;97710.53;;;8.31;97.02
16806;BME280;8520;50.102;20.010;2023-02-19T06:19:24;97713.34;;;8.07;97.98
16806;BME280;8520;50.102;20.010;2023-02-19T06:21:52;97705.13;;;7.83;98.51
16806;BME280;8520;50.102;20.010;2023-02-19T06:24:20;97700.69;;;8.24;97.52
16806;BME280;8520;50.102;20.010;2023-02-19T06:26:49;97705.28;;;8.42;97.39
16806;BME280;8520;50.102;20.010;2023-02-19T06:29:17;97700.06;;;7.90;97.40
16806;BME280;8520;50.102;20.010;2023-02-19T06:31:45;97696.88;;;8.07;97.41
16806;BME280;8520;50.102;20.010;2023-02-19T06:34:13;97704.19;;;8.24;98.52
16806;BME280;8520;50.102;20.010;2023-02-19T06:36:42;97695.81;;;8.04;98.58
16806;BME280;8520;50.102;20.010;2023-02-19T06:39:10;97704.75;;;8.28;98.33
16806;BME280;8520;50.102;20.010;2023-02-19T06:41:38;97713.72;;;7.99;99.32
16806;BME280;8520;50.102;20.010;2023-02-19T06:44:07;97712.34;;;8.34;97.86
16806;BME280;8520;50.102;20.010;2023-02-19T06:46:35;97709.41;;;7.84;98.23
16806;BME280;8520;50.102;20.010;2023-02-19T06:49:03;97715.81;;;7.81;99.02
16806;BME280;8520;50.102;20.010;2023-02-19T06:51:32;97714.47;;;7.76;100.00
16806;BME280;8520;50.102;20.010;2023-02-19T06:54:02;97725.22;;;7.65;99.90
16806;BME280;8520;50.102;20.010;2023-02-19T06:56:31;97719.91;;;7.61;100.00
16806;BME280;8520;50.102;20.010;2023-02-19T06:59:01;97713.78;;;7.66;100.00
16806;BME280;8520;50.102;20.010;2023-02-19T07:01:31;97717.69;;;7.75;100.00
16806;BME280;8520;50.102;20.010;2023-02-19T07:04:00;97705.03;;;8.31;98.72
16806;BME280;8520;50.102;20.010;2023-02-19T07:06:28;97703.84;;;7.93;98.83
16806;BME280;8520;50.102;20.010;2023-02-19T07:08:57;97708.81;;;8.18;98.24
16806;BME280;8520;50.102;20.010;2023-02-19T07:11:29;97708.34;;;8.05;98.55
16806;BME280;8520;50.102;20.010;2023-02-19T07:13:58;97706.47;;;8.26;98.62
16806;BME280;8520;50.102;20.010;2023-02-19T07:16:27;97706.63;;;7.69;100.00
16806;BME280;8520;50.102;20.010;2023-02-19T07:18:56;97704.03;;;7.89;100.00
16806;BME280;8520;50.102;20.010;2023-02-19T07:21:25;97712.69;;;7.73;100.00
16806;BME280;8520;50.102;20.010;2023-02-19T07:23:53;97689.19;;;8.49;99.15
16806;BME280;8520;50.102;20.010;2023-02-19T07:26:22;97684.78;;;8.28;99.17
16806;BME280;8520;50.102;20.010;2023-02-19T07:28:52;97684.41;;;8.20;99.05
16806;BME280;8520;50.102;20.010;2023-02-19T07:31:22;97695.81;;;7.89;98.68
16806;BME280;8520;50.102;20.010;2023-02-19T07:33:51;97690.22;;;8.67;96.37
16806;BME280;8520;50.102;20.010;2023-02-19T07:36:20;97689.84;;;8.89;95.00
16806;BME280;8520;50.102;20.010;2023-02-19T07:38:52;97694.47;;;8.68;96.76
16806;BME280;8520;50.102;20.010;2023-02-19T07:41:21;97699.59;;;8.45;96.80
16806;BME280;8520;50.102;20.010;2023-02-19T07:43:50;97697.25;;;8.53;97.57
16806;BME280;8520;50.102;20.010;2023-02-19T07:46:20;97699.59;;;8.75;96.11
16806;BME280;8520;50.102;20.010;2023-02-19T07:48:49;97692.31;;;8.57;96.63
16806;BME280;8520;50.102;20.010;2023-02-19T07:51:19;97693.06;;;8.72;94.27
16806;BME280;8520;50.102;20.010;2023-02-19T07:53:48;97692.69;;;8.79;94.19
16806;BME280;8520;50.102;20.010;2023-02-19T07:56:17;97691.25;;;8.84;94.86
16806;BME280;8520;50.102;20.010;2023-02-19T07:58:46;97690.81;;;9.21;93.66
16806;BME280;8520;50.102;20.010;2023-02-19T08:01:15;97690.50;;;8.83;94.08
16806;BME280;8520;50.102;20.010;2023-02-19T08:03:45;97689.53;;;9.36;94.22
16806;BME280;8520;50.102;20.010;2023-02-19T08:06:15;97690.25;;;9.52;93.29
16806;BME280;8520;50.102;20.010;2023-02-19T08:08:44;97687.75;;;9.94;90.60
16806;BME280;8520;50.102;20.010;2023-02-19T08:11:12;97681.72;;;9.70;91.88
16806;BME280;8520;50.102;20.010;2023-02-19T08:14:08;97672.81;;;9.40;92.73
16806;BME280;8520;50.102;20.010;2023-02-19T08:16:36;97679.50;;;9.33;94.46
16806;BME280;8520;50.102;20.010;2023-02-19T08:19:10;97670.97;;;9.31;94.98
16806;BME280;8520;50.102;20.010;2023-02-19T08:21:38;97677.53;;;9.19;95.43
16806;BME280;8520;50.102;20.010;2023-02-19T08:24:06;97678.19;;;8.79;95.51
16806;BME280;8520;50.102;20.010;2023-02-19T08:26:35;97681.66;;;9.09;96.12
16806;BME280;8520;50.102;20.010;2023-02-19T08:29:03;97681.41;;;9.27;94.77
16806;BME280;8520;50.102;20.010;2023-02-19T08:31:32;97689.31;;;9.05;94.57
16806;BME280;8520;50.102;20.010;2023-02-19T08:34:01;97683.50;;;8.82;96.29
16806;BME280;8520;50.102;20.010;2023-02-19T08:36:31;97681.97;;;8.96;97.18
16806;BME280;8520;50.102;20.010;2023-02-19T08:38:59;97675.88;;;9.07;96.80
16806;BME280;8520;50.102;20.010;2023-02-19T08:41:27;97681.91;;;9.11;96.30
16806;BME280;8520;50.102;20.010;2023-02-19T08:43:55;97678.78;;;9.18;96.31
16806;BME280;8520;50.102;20.010;2023-02-19T08:46:23;97681.88;;;9.26;95.50
16806;BME280;8520;50.102;20.010;2023-02-19T08:48:51;97697.31;;;9.23;96.26
16806;BME280;8520;50.102;20.010;2023-02-19T08:51:19;97686.22;;;8.97;96.24
16806;BME280;8520;50.102;20.010;2023-02-19T08:53:49;97701.88;;;9.26;95.03
16806;BME280;8520;50.102;20.010;2023-02-19T08:56:17;97695.16;;;8.63;97.25
16806;BME280;8520;50.102;20.010;2023-02-19T08:58:45;97702.06;;;9.23;95.95
16806;BME280;8520;50.102;20.010;2023-02-19T09:01:15;97705.97;;;8.51;96.84
16806;BME280;8520;50.102;20.010;2023-02-19T09:03:44;97689.31;;;9.40;95.34
16806;BME280;8520;50.102;20.010;2023-02-19T09:06:15;97695.25;;;8.39;98.37
16806;BME280;8520;50.102;20.010;2023-02-19T09:08:44;97690.00;;;9.35;96.39
16806;BME280;8520;50.102;20.010;2023-02-19T09:11:14;97700.13;;;9.08;95.95
16806;BME280;8520;50.102;20.010;2023-02-19T09:13:42;97695.75;;;9.17;97.08
16806;BME280;8520;50.102;20.010;2023-02-19T09:16:10;97689.28;;;9.20;96.20
16806;BME280;8520;50.102;20.010;2023-02-19T09:18:39;97698.56;;;9.22;96.83
16806;BME280;8520;50.102;20.010;2023-02-19T09:21:07;97697.94;;;9.48;95.47
16806;BME280;8520;50.102;20.010;2023-02-19T09:23:36;97706.25;;;9.53;93.55
16806;BME280;8520;50.102;20.010;2023-02-19T09:26:05;97704.03;;;9.37;93.90
16806;BME280;8520;50.102;20.010;2023-02-19T09:28:37;97695.44;;;8.65;94.13
16806;BME280;8520;50.102;20.010;2023-02-19T09:31:09;97716.56;;;8.44;95.70
16806;BME280;8520;50.102;20.010;2023-02-19T09:33:41;97705.38;;;8.92;93.47
16806;BME280;8520;50.102;20.010;2023-02-19T09:36:10;97693.63;;;8.47;94.16
16806;BME280;8520;50.102;20.010;2023-02-19T09:38:39;97710.88;;;8.47;94.07
16806;BME280;8520;50.102;20.010;2023-02-19T09:41:11;97701.41;;;8.48;93.40
16806;BME280;8520;50.102;20.010;2023-02-19T09:43:42;97705.78;;;8.16;96.08
16806;BME280;8520;50.102;20.010;2023-02-19T09:46:21;97707.72;;;8.25;96.02
16806;BME280;8520;50.102;20.010;2023-02-19T09:48:51;97717.97;;;8.01;95.95
16806;BME280;8520;50.102;20.010;2023-02-19T09:51:20;97712.50;;;8.69;94.47
16806;BME280;8520;50.102;20.010;2023-02-19T09:53:49;97706.19;;;8.24;95.52
16806;BME280;8520;50.102;20.010;2023-02-19T09:56:18;97710.00;;;8.86;93.96
16806;BME280;8520;50.102;20.010;2023-02-19T09:58:50;97715.91;;;8.64;93.34
16806;BME280;8520;50.102;20.010;2023-02-19T10:01:20;97706.63;;;8.61;93.66
16806;BME280;8520;50.102;20.010;2023-02-19T10:03:49;97703.78;;;8.55;93.22
16806;BME280;8520;50.102;20.010;2023-02-19T10:06:19;97708.38;;;9.08;92.75
16806;BME280;8520;50.102;20.010;2023-02-19T10:08:51;97712.38;;;8.93;91.99
16806;BME280;8520;50.102;20.010;2023-02-19T10:11:20;97705.88;;;8.61;94.33
16806;BME280;8520;50.102;20.010;2023-02-19T10:14:04;97714.63;;;8.94;92.18
16806;BME280;8520;50.102;20.010;2023-02-19T10:16:38;97721.44;;;9.13;91.90
16806;BME280;8520;50.102;20.010;2023-02-19T10:19:09;97723.28;;;8.72;91.74
16806;BME280;8520;50.102;20.010;2023-02-19T10:21:38;97722.97;;;8.41;92.76
16806;BME280;8520;50.102;20.010;2023-02-19T10:24:07;97737.72;;;7.00;95.02
16806;BME280;8520;50.102;20.010;2023-02-19T10:26:40;97727.34;;;7.04;96.12
16806;BME280;8520;50.102;20.010;2023-02-19T10:29:10;97751.50;;;7.24;96.44
16806;BME280;8520;50.102;20.010;2023-02-19T10:31:38;97735.59;;;6.95;96.50
16806;BME280;8520;50.102;20.010;2023-02-19T10:34:16;97737.75;;;7.57;94.54
16806;BME280;8520;50.102;20.010;2023-02-19T10:36:46;97744.50;;;6.71;95.26
16806;BME280;8520;50.102;20.010;2023-02-19T10:39:39;97764.28;;;6.66;95.01
16806;BME280;8520;50.102;20.010;2023-02-19T10:42:16;97772.69;;;6.26;94.62
16806;BME280;8520;50.102;20.010;2023-02-19T10:44:48;97791.22;;;5.94;96.95
16806;BME280;8520;50.102;20.010;2023-02-19T10:47:21;97782.97;;;5.85;98.69
16806;BME280;8520;50.102;20.010;2023-02-19T10:49:50;97793.38;;;5.59;99.22
16806;BME280;8520;50.102;20.010;2023-02-19T10:52:22;97776.38;;;5.15;99.94
16806;BME280;8520;50.102;20.010;2023-02-19T10:54:54;97795.38;;;5.28;99.33
16806;BME280;8520;50.102;20.010;2023-02-19T10:57:26;97783.88;;;5.33;100.00
16806;BME280;8520;50.102;20.010;2023-02-19T11:00:01;97786.25;;;5.22;99.12
16806;BME280;8520;50.102;20.010;2023-02-19T11:02:31;97792.94;;;5.30;98.59
16806;BME280;8520;50.102;20.010;2023-02-19T11:05:05;97791.91;;;5.36;98.13
16806;BME280;8520;50.102;20.010;2023-02-19T11:07:35;97811.31;;;5.29;97.37
16806;BME280;8520;50.102;20.010;2023-02-19T11:10:05;97807.69;;;5.01;97.28
16806;BME280;8520;50.102;20.010;2023-02-19T11:12:34;97829.53;;;5.01;98.27
16806;BME280;8520;50.102;20.010;2023-02-19T11:15:19;97806.25;;;5.19;98.30
16806;BME280;8520;50.102;20.010;2023-02-19T11:17:54;97824.06;;;5.23;97.78
16806;BME280;8520;50.102;20.010;2023-02-19T11:20:22;97820.72;;;5.28;97.73
16806;BME280;8520;50.102;20.010;2023-02-19T11:22:56;97824.22;;;5.29;95.60
16806;BME280;8520;50.102;20.010;2023-02-19T11:25:25;97839.84;;;4.97;95.91
16806;BME280;8520;50.102;20.010;2023-02-19T11:27:56;97829.69;;;4.54;95.63
16806;BME280;8520;50.102;20.010;2023-02-19T11:30:35;97831.34;;;4.51;97.02
16806;BME280;8520;50.102;20.010;2023-02-19T11:33:20;97823.91;;;4.74;96.85
16806;BME280;8520;50.102;20.010;2023-02-19T11:35:51;97844.28;;;5.04;95.51
16806;BME280;8520;50.102;20.010;2023-02-19T11:38:20;97842.47;;;5.10;95.07
16806;BME280;8520;50.102;20.010;2023-02-19T11:40:53;97842.69;;;4.94;94.75
16806;BME280;8520;50.102;20.010;2023-02-19T11:43:39;97846.44;;;4.87;95.69
16806;BME280;8520;50.102;20.010;2023-02-19T11:46:16;97858.38;;;4.59;96.06
16806;BME280;8520;50.102;20.010;2023-02-19T11:49:03;97856.84;;;5.63;94.17
16806;BME280;8520;50.102;20.010;2023-02-19T11:51:56;97866.94;;;4.92;93.86
16806;BME280;8520;50.102;20.010;2023-02-19T11:54:43;97869.56;;;4.95;94.96
16806;BME280;8520;50.102;20.010;2023-02-19T11:57:21;97878.16;;;4.94;94.47
16806;BME280;8520;50.102;20.010;2023-02-19T12:00:02;97881.97;;;5.80;92.26
16806;BME280;8520;50.102;20.010;2023-02-19T12:05:35;97889.72;;;5.41;90.81
16806;BME280;8520;50.102;20.010;2023-02-19T12:08:26;97881.38;;;5.45;91.70
16806;BME280;8520;50.102;20.010;2023-02-19T12:11:10;97887.97;;;5.66;91.28
16806;BME280;8520;50.102;20.010;2023-02-19T12:13:53;97891.28;;;5.92;89.53
16806;BME280;8520;50.102;20.010;2023-02-19T12:16:30;97889.19;;;5.96;89.99
16806;BME280;8520;50.102;20.010;2023-02-19T12:19:35;97905.13;;;5.66;89.12
16806;BME280;8520;50.102;20.010;2023-02-19T12:22:19;97906.00;;;5.85;89.28
16806;BME280;8520;50.102;20.010;2023-02-19T12:25:15;97902.06;;;5.55;89.43
16806;BME280;8520;50.102;20.010;2023-02-19T12:28:12;97911.75;;;6.27;88.41
16806;BME280;8520;50.102;20.010;2023-02-19T12:31:02;97929.16;;;6.61;86.83
16806;BME280;8520;50.102;20.010;2023-02-19T12:36:34;97930.22;;;6.82;87.02
16806;BME280;8520;50.102;20.010;2023-02-19T12:39:11;97958.28;;;6.37;86.11
16806;BME280;8520;50.102;20.010;2023-02-19T12:41:50;97944.50;;;6.59;85.81
16806;BME280;8520;50.102;20.010;2023-02-19T12:44:30;97930.22;;;6.73;85.88
16806;BME280;8520;50.102;20.010;2023-02-19T12:47:04;97934.00;;;6.84;86.16
16806;BME280;8520;50.102;20.010;2023-02-19T12:49:36;97945.59;;;6.12;87.28
16806;BME280;8520;50.102;20.010;2023-02-19T12:52:11;97941.63;;;6.80;86.00
16806;BME280;8520;50.102;20.010;2023-02-19T12:54:43;97945.97;;;6.32;89.27
16806;BME280;8520;50.102;20.010;2023-02-19T12:57:16;97951.81;;;6.80;86.10
16806;BME280;8520;50.102;20.010;2023-02-19T12:59:47;97960.00;;;6.52;87.05
16806;BME280;8520;50.102;20.010;2023-02-19T13:02:20;97964.13;;;6.66;86.26
16806;BME280;8520;50.102;20.010;2023-02-19T13:04:56;97949.53;;;6.69;85.69
16806;BME280;8520;50.102;20.010;2023-02-19T13:07:32;97953.19;;;6.84;84.70
16806;BME280;8520;50.102;20.010;2023-02-19T13:10:19;97945.59;;;6.98;84.38
16806;BME280;8520;50.102;20.010;2023-02-19T13:12:49;97972.06;;;6.82;84.68
16806;BME280;8520;50.102;20.010;2023-02-19T13:15:22;97969.38;;;6.33;84.33
16806;BME280;8520;50.102;20.010;2023-02-19T13:17:53;97956.13;;;6.22;85.13
16806;BME280;8520;50.102;20.010;2023-02-19T13:20:28;97950.28;;;6.02;86.56
16806;BME280;8520;50.102;20.010;2023-02-19T13:23:04;97981.41;;;5.95;86.40
16806;BME280;8520;50.102;20.010;2023-02-19T13:26:08;97969.88;;;6.01;85.10
16806;BME280;8520;50.102;20.010;2023-02-19T13:28:47;98008.19;;;5.57;85.36
16806;BME280;8520;50.102;20.010;2023-02-19T13:31:37;98019.63;;;5.86;85.32
16806;BME280;8520;50.102;20.010;2023-02-19T13:34:13;98001.91;;;5.69;85.48
16806;BME280;8520;50.102;20.010;2023-02-19T13:36:45;98024.53;;;5.69;84.98
16806;BME280;8520;50.102;20.010;2023-02-19T13:39:18;98035.44;;;6.13;83.57
16806;BME280;8520;50.102;20.010;2023-02-19T13:41:49;97989.53;;;5.86;84.79
16806;BME280;8520;50.102;20.010;2023-02-19T13:44:19;98037.84;;;5.89;83.35